sensor_id;sensor_type;location;lat;lon;timestamp;P1;durP1;ratioP1;P2;durP2;ratioP2
38208;SDS011;24016;52.102;11.584;2023-04-09T00:00:35;52.65;;;30.50;;
38208;SDS011;24016;52.102;11.584;2023-04-09T00:03:00;61.65;;;31.75;;
38208;SDS011;24016;52.102;11.584;2023-04-09T00:05:26;64.22;;;30.60;;
38208;SDS011;24016;52.102;11.584;2023-04-09T00:07:52;58.80;;;32.03;;
38208;SDS011;24016;52.102;11.584;2023-04-09T00:10:17;59.58;;;31.45;;
38208;SDS011;24016;52.102;11.584;2023-04-09T00:12:43;59.70;;;30.88;;
38208;SDS011;24016;52.102;11.584;2023-04-09T00:15:09;58.97;;;30.35;;
38208;SDS011;24016;52.102;11.584;2023-04-09T00:17:35;58.33;;;32.10;;
38208;SDS011;24016;52.102;11.584;2023-04-09T00:20:00;68.70;;;33.22;;
38208;SDS011;24016;52.102;11.584;2023-04-09T00:22:25;66.70;;;33.40;;
38208;SDS011;24016;52.102;11.584;2023-04-09T00:24:51;69.05;;;32.88;;
38208;SDS011;24016;52.102;11.584;2023-04-09T00:27:17;63.08;;;33.20;;
38208;SDS011;24016;52.102;11.584;2023-04-09T00:29:42;65.70;;;34.50;;
38208;SDS011;24016;52.102;11.584;2023-04-09T00:32:08;67.38;;;33.58;;
38208;SDS011;24016;52.102;11.584;2023-04-09T00:34:33;68.63;;;35.20;;
38208;SDS011;24016;52.102;11.584;2023-04-09T00:36:59;66.80;;;35.13;;
38208;SDS011;24016;52.102;11.584;2023-04-09T00:39:25;70.38;;;36.15;;
38208;SDS011;24016;52.102;11.584;2023-04-09T00:41:54;66.65;;;34.28;;
38208;SDS011;24016;52.102;11.584;2023-04-09T00:44:26;65.82;;;34.33;;
38208;SDS011;24016;52.102;11.584;2023-04-09T00:46:52;66.55;;;34.42;;
38208;SDS011;24016;52.102;11.584;2023-04-09T00:49:18;69.97;;;34.85;;
38208;SDS011;24016;52.102;11.584;2023-04-09T00:51:44;72.30;;;35.55;;
38208;SDS011;24016;52.102;11.584;2023-04-09T00:54:11;66.40;;;33.92;;
38208;SDS011;24016;52.102;11.584;2023-04-09T00:56:37;74.97;;;34.45;;
38208;SDS011;24016;52.102;11.584;2023-04-09T00:59:03;65.00;;;33.63;;
38208;SDS011;24016;52.102;11.584;2023-04-09T01:01:28;73.15;;;35.15;;
38208;SDS011;24016;52.102;11.584;2023-04-09T01:03:54;71.57;;;35.30;;
38208;SDS011;24016;52.102;11.584;2023-04-09T01:06:44;71.68;;;36.78;;
38208;SDS011;24016;52.102;11.584;2023-04-09T01:12:11;70.30;;;34.50;;
38208;SDS011;24016;52.102;11.584;2023-04-09T01:17:36;71.13;;;34.33;;
38208;SDS011;24016;52.102;11.584;2023-04-09T01:22:56;70.53;;;34.22;;
38208;SDS011;24016;52.102;11.584;2023-04-09T01:25:38;70.07;;;34.67;;
38208;SDS011;24016;52.102;11.584;2023-04-09T01:28:18;68.00;;;35.97;;
38208;SDS011;24016;52.102;11.584;2023-04-09T01:33:26;67.43;;;34.67;;
38208;SDS011;24016;52.102;11.584;2023-04-09T01:35:54;63.42;;;35.10;;
38208;SDS011;24016;52.102;11.584;2023-04-09T01:38:21;63.47;;;34.35;;
38208;SDS011;24016;52.102;11.584;2023-04-09T01:40:47;60.25;;;32.60;;
38208;SDS011;24016;52.102;11.584;2023-04-09T01:43:13;62.42;;;32.55;;
38208;SDS011;24016;52.102;11.584;2023-04-09T01:45:40;63.88;;;32.65;;
38208;SDS011;24016;52.102;11.584;2023-04-09T01:48:06;62.83;;;33.60;;
38208;SDS011;24016;52.102;11.584;2023-04-09T01:50:33;61.10;;;31.90;;
38208;SDS011;24016;52.102;11.584;2023-04-09T01:52:59;58.42;;;31.45;;
38208;SDS011;24016;52.102;11.584;2023-04-09T01:55:26;59.60;;;31.58;;
38208;SDS011;24016;52.102;11.584;2023-04-09T01:57:51;61.10;;;32.03;;
38208;SDS011;24016;52.102;11.584;2023-04-09T02:00:17;58.33;;;31.00;;
38208;SDS011;24016;52.102;11.584;2023-04-09T02:05:33;59.80;;;31.33;;
38208;SDS011;24016;52.102;11.584;2023-04-09T02:08:02;58.25;;;30.13;;
38208;SDS011;24016;52.102;11.584;2023-04-09T02:10:30;57.53;;;31.58;;
38208;SDS011;24016;52.102;11.584;2023-04-09T02:12:59;59.90;;;31.48;;
38208;SDS011;24016;52.102;11.584;2023-04-09T02:15:27;60.80;;;31.33;;
38208;SDS011;24016;52.102;11.584;2023-04-09T02:17:54;58.33;;;31.67;;
38208;SDS011;24016;52.102;11.584;2023-04-09T02:20:20;54.28;;;31.50;;
38208;SDS011;24016;52.102;11.584;2023-04-09T02:22:46;52.30;;;31.05;;
38208;SDS011;24016;52.102;11.584;2023-04-09T02:25:12;56.72;;;31.40;;
38208;SDS011;24016;52.102;11.584;2023-04-09T02:27:38;56.15;;;30.50;;
38208;SDS011;24016;52.102;11.584;2023-04-09T02:30:04;54.13;;;29.48;;
38208;SDS011;24016;52.102;11.584;2023-04-09T02:32:30;56.97;;;30.50;;
38208;SDS011;24016;52.102;11.584;2023-04-09T02:34:55;55.30;;;31.17;;
38208;SDS011;24016;52.102;11.584;2023-04-09T02:37:21;53.13;;;29.75;;
38208;SDS011;24016;52.102;11.584;2023-04-09T02:39:46;54.25;;;29.30;;
38208;SDS011;24016;52.102;11.584;2023-04-09T02:42:12;54.90;;;29.48;;
38208;SDS011;24016;52.102;11.584;2023-04-09T02:44:37;60.67;;;31.02;;
38208;SDS011;24016;52.102;11.584;2023-04-09T02:47:03;57.78;;;30.17;;
38208;SDS011;24016;52.102;11.584;2023-04-09T02:49:28;56.72;;;31.10;;
38208;SDS011;24016;52.102;11.584;2023-04-09T02:51:54;53.25;;;29.85;;
38208;SDS011;24016;52.102;11.584;2023-04-09T02:54:20;66.38;;;31.90;;
38208;SDS011;24016;52.102;11.584;2023-04-09T02:56:45;62.13;;;32.05;;
38208;SDS011;24016;52.102;11.584;2023-04-09T02:59:10;66.35;;;32.35;;
38208;SDS011;24016;52.102;11.584;2023-04-09T03:01:36;68.70;;;32.38;;
38208;SDS011;24016;52.102;11.584;2023-04-09T03:04:01;71.38;;;32.65;;
38208;SDS011;24016;52.102;11.584;2023-04-09T03:06:27;72.95;;;32.80;;
38208;SDS011;24016;52.102;11.584;2023-04-09T03:08:53;63.88;;;31.67;;
38208;SDS011;24016;52.102;11.584;2023-04-09T03:11:18;74.18;;;33.85;;
38208;SDS011;24016;52.102;11.584;2023-04-09T03:13:44;74.20;;;33.17;;
38208;SDS011;24016;52.102;11.584;2023-04-09T03:16:09;66.68;;;32.85;;
38208;SDS011;24016;52.102;11.584;2023-04-09T03:18:35;68.18;;;33.05;;
38208;SDS011;24016;52.102;11.584;2023-04-09T03:21:04;72.25;;;33.28;;
38208;SDS011;24016;52.102;11.584;2023-04-09T03:23:31;61.85;;;31.92;;
38208;SDS011;24016;52.102;11.584;2023-04-09T03:26:02;68.45;;;33.78;;
38208;SDS011;24016;52.102;11.584;2023-04-09T03:28:28;81.00;;;35.75;;
38208;SDS011;24016;52.102;11.584;2023-04-09T03:30:55;82.13;;;35.03;;
38208;SDS011;24016;52.102;11.584;2023-04-09T03:33:20;73.53;;;34.55;;
38208;SDS011;24016;52.102;11.584;2023-04-09T03:35:46;77.80;;;36.25;;
38208;SDS011;24016;52.102;11.584;2023-04-09T03:38:11;71.47;;;34.80;;
38208;SDS011;24016;52.102;11.584;2023-04-09T03:40:37;71.60;;;35.00;;
38208;SDS011;24016;52.102;11.584;2023-04-09T03:43:02;73.28;;;35.88;;
38208;SDS011;24016;52.102;11.584;2023-04-09T03:45:28;71.63;;;35.22;;
38208;SDS011;24016;52.102;11.584;2023-04-09T03:47:53;75.65;;;37.65;;
38208;SDS011;24016;52.102;11.584;2023-04-09T03:50:19;74.75;;;37.03;;
38208;SDS011;24016;52.102;11.584;2023-04-09T03:52:45;77.70;;;36.08;;
38208;SDS011;24016;52.102;11.584;2023-04-09T03:55:11;74.13;;;37.90;;
38208;SDS011;24016;52.102;11.584;2023-04-09T03:57:36;76.07;;;37.42;;
38208;SDS011;24016;52.102;11.584;2023-04-09T04:00:02;81.85;;;38.13;;
38208;SDS011;24016;52.102;11.584;2023-04-09T04:02:28;76.20;;;38.42;;
38208;SDS011;24016;52.102;11.584;2023-04-09T04:04:57;71.63;;;39.45;;
38208;SDS011;24016;52.102;11.584;2023-04-09T04:07:23;65.35;;;36.70;;
38208;SDS011;24016;52.102;11.584;2023-04-09T04:09:48;72.45;;;38.65;;
38208;SDS011;24016;52.102;11.584;2023-04-09T04:12:14;64.43;;;37.92;;
38208;SDS011;24016;52.102;11.584;2023-04-09T04:14:40;72.07;;;40.53;;
38208;SDS011;24016;52.102;11.584;2023-04-09T04:17:05;65.57;;;39.47;;
38208;SDS011;24016;52.102;11.584;2023-04-09T04:19:31;65.75;;;38.60;;
38208;SDS011;24016;52.102;11.584;2023-04-09T04:21:56;64.85;;;36.92;;
38208;SDS011;24016;52.102;11.584;2023-04-09T04:24:21;64.00;;;38.63;;
38208;SDS011;24016;52.102;11.584;2023-04-09T04:26:47;63.70;;;38.97;;
38208;SDS011;24016;52.102;11.584;2023-04-09T04:29:13;62.00;;;38.50;;
38208;SDS011;24016;52.102;11.584;2023-04-09T04:31:38;60.15;;;38.22;;
38208;SDS011;24016;52.102;11.584;2023-04-09T04:34:04;60.47;;;38.25;;
38208;SDS011;24016;52.102;11.584;2023-04-09T04:36:29;65.13;;;38.58;;
38208;SDS011;24016;52.102;11.584;2023-04-09T04:38:55;58.95;;;38.05;;
38208;SDS011;24016;52.102;11.584;2023-04-09T04:41:20;61.20;;;37.10;;
38208;SDS011;24016;52.102;11.584;2023-04-09T04:43:46;58.72;;;36.33;;
38208;SDS011;24016;52.102;11.584;2023-04-09T04:46:12;61.60;;;36.72;;
38208;SDS011;24016;52.102;11.584;2023-04-09T04:48:37;63.15;;;36.85;;
38208;SDS011;24016;52.102;11.584;2023-04-09T04:51:03;58.72;;;37.17;;
38208;SDS011;24016;52.102;11.584;2023-04-09T04:53:28;58.63;;;36.78;;
38208;SDS011;24016;52.102;11.584;2023-04-09T04:55:54;60.10;;;35.63;;
38208;SDS011;24016;52.102;11.584;2023-04-09T04:58:19;55.42;;;34.65;;
38208;SDS011;24016;52.102;11.584;2023-04-09T05:00:45;56.17;;;36.17;;
38208;SDS011;24016;52.102;11.584;2023-04-09T05:03:11;52.58;;;35.03;;
38208;SDS011;24016;52.102;11.584;2023-04-09T05:05:36;67.10;;;37.20;;
38208;SDS011;24016;52.102;11.584;2023-04-09T05:08:02;55.95;;;37.50;;
38208;SDS011;24016;52.102;11.584;2023-04-09T05:10:28;56.40;;;36.05;;
38208;SDS011;24016;52.102;11.584;2023-04-09T05:12:53;55.80;;;37.03;;
38208;SDS011;24016;52.102;11.584;2023-04-09T05:15:19;60.42;;;38.90;;
38208;SDS011;24016;52.102;11.584;2023-04-09T05:17:44;55.15;;;37.22;;
38208;SDS011;24016;52.102;11.584;2023-04-09T05:20:10;55.05;;;37.97;;
38208;SDS011;24016;52.102;11.584;2023-04-09T05:22:36;58.67;;;37.92;;
38208;SDS011;24016;52.102;11.584;2023-04-09T05:25:01;54.33;;;36.17;;
38208;SDS011;24016;52.102;11.584;2023-04-09T05:27:27;56.42;;;37.78;;
38208;SDS011;24016;52.102;11.584;2023-04-09T05:29:53;58.65;;;38.35;;
38208;SDS011;24016;52.102;11.584;2023-04-09T05:32:19;57.55;;;38.40;;
38208;SDS011;24016;52.102;11.584;2023-04-09T05:34:44;57.92;;;38.17;;
38208;SDS011;24016;52.102;11.584;2023-04-09T05:37:10;58.50;;;37.97;;
38208;SDS011;24016;52.102;11.584;2023-04-09T05:39:36;56.60;;;38.00;;
38208;SDS011;24016;52.102;11.584;2023-04-09T05:42:01;55.22;;;38.80;;
38208;SDS011;24016;52.102;11.584;2023-04-09T05:44:27;56.05;;;37.78;;
38208;SDS011;24016;52.102;11.584;2023-04-09T05:46:53;53.33;;;36.88;;
38208;SDS011;24016;52.102;11.584;2023-04-09T05:49:18;53.83;;;36.72;;
38208;SDS011;24016;52.102;11.584;2023-04-09T05:51:44;52.05;;;36.58;;
38208;SDS011;24016;52.102;11.584;2023-04-09T05:54:09;53.33;;;38.13;;
38208;SDS011;24016;52.102;11.584;2023-04-09T05:56:35;55.10;;;37.35;;
38208;SDS011;24016;52.102;11.584;2023-04-09T05:59:00;55.88;;;38.17;;
38208;SDS011;24016;52.102;11.584;2023-04-09T06:01:26;58.03;;;38.58;;
38208;SDS011;24016;52.102;11.584;2023-04-09T06:03:51;52.80;;;37.40;;
38208;SDS011;24016;52.102;11.584;2023-04-09T06:06:17;52.42;;;36.33;;
38208;SDS011;24016;52.102;11.584;2023-04-09T06:08:43;51.55;;;37.83;;
38208;SDS011;24016;52.102;11.584;2023-04-09T06:11:09;49.75;;;35.53;;
38208;SDS011;24016;52.102;11.584;2023-04-09T06:13:35;53.90;;;37.92;;
38208;SDS011;24016;52.102;11.584;2023-04-09T06:16:02;54.28;;;36.38;;
38208;SDS011;24016;52.102;11.584;2023-04-09T06:18:29;52.15;;;36.47;;
38208;SDS011;24016;52.102;11.584;2023-04-09T06:21:05;51.70;;;35.40;;
38208;SDS011;24016;52.102;11.584;2023-04-09T06:23:31;48.67;;;35.60;;
38208;SDS011;24016;52.102;11.584;2023-04-09T06:25:58;48.40;;;35.30;;
38208;SDS011;24016;52.102;11.584;2023-04-09T06:28:24;54.63;;;36.65;;
38208;SDS011;24016;52.102;11.584;2023-04-09T06:30:50;49.70;;;36.67;;
38208;SDS011;24016;52.102;11.584;2023-04-09T06:33:17;54.08;;;36.00;;
38208;SDS011;24016;52.102;11.584;2023-04-09T06:35:43;50.72;;;36.05;;
38208;SDS011;24016;52.102;11.584;2023-04-09T06:38:08;50.88;;;35.70;;
38208;SDS011;24016;52.102;11.584;2023-04-09T06:40:36;50.88;;;35.35;;
38208;SDS011;24016;52.102;11.584;2023-04-09T06:43:02;47.58;;;35.35;;
38208;SDS011;24016;52.102;11.584;2023-04-09T06:45:28;48.08;;;34.95;;
38208;SDS011;24016;52.102;11.584;2023-04-09T06:47:55;47.67;;;35.28;;
38208;SDS011;24016;52.102;11.584;2023-04-09T06:50:20;53.22;;;38.15;;
38208;SDS011;24016;52.102;11.584;2023-04-09T06:52:46;50.88;;;36.33;;
38208;SDS011;24016;52.102;11.584;2023-04-09T06:55:12;47.33;;;35.95;;
38208;SDS011;24016;52.102;11.584;2023-04-09T06:57:37;51.83;;;36.78;;
38208;SDS011;24016;52.102;11.584;2023-04-09T07:00:03;45.67;;;34.35;;
38208;SDS011;24016;52.102;11.584;2023-04-09T07:02:29;44.97;;;33.70;;
38208;SDS011;24016;52.102;11.584;2023-04-09T07:04:55;45.15;;;33.22;;
38208;SDS011;24016;52.102;11.584;2023-04-09T07:07:20;48.53;;;35.00;;
38208;SDS011;24016;52.102;11.584;2023-04-09T07:09:46;43.53;;;33.20;;
38208;SDS011;24016;52.102;11.584;2023-04-09T07:12:12;43.03;;;32.47;;
38208;SDS011;24016;52.102;11.584;2023-04-09T07:14:38;42.22;;;31.55;;
38208;SDS011;24016;52.102;11.584;2023-04-09T07:17:03;42.53;;;33.08;;
38208;SDS011;24016;52.102;11.584;2023-04-09T07:19:29;43.92;;;32.50;;
38208;SDS011;24016;52.102;11.584;2023-04-09T07:21:55;40.83;;;31.60;;
38208;SDS011;24016;52.102;11.584;2023-04-09T07:24:20;38.35;;;31.13;;
38208;SDS011;24016;52.102;11.584;2023-04-09T07:26:46;40.22;;;30.15;;
38208;SDS011;24016;52.102;11.584;2023-04-09T07:29:11;39.83;;;30.55;;
38208;SDS011;24016;52.102;11.584;2023-04-09T07:31:37;40.83;;;31.55;;
38208;SDS011;24016;52.102;11.584;2023-04-09T07:34:02;38.05;;;30.10;;
38208;SDS011;24016;52.102;11.584;2023-04-09T07:36:28;40.03;;;31.50;;
38208;SDS011;24016;52.102;11.584;2023-04-09T07:38:53;39.83;;;30.83;;
38208;SDS011;24016;52.102;11.584;2023-04-09T07:41:19;38.50;;;31.27;;
38208;SDS011;24016;52.102;11.584;2023-04-09T07:43:45;38.38;;;31.65;;
38208;SDS011;24016;52.102;11.584;2023-04-09T07:46:11;40.55;;;32.00;;
38208;SDS011;24016;52.102;11.584;2023-04-09T07:48:43;42.58;;;33.28;;
38208;SDS011;24016;52.102;11.584;2023-04-09T07:51:08;41.08;;;33.22;;
38208;SDS011;24016;52.102;11.584;2023-04-09T07:53:35;43.03;;;34.17;;
38208;SDS011;24016;52.102;11.584;2023-04-09T07:56:00;43.78;;;33.85;;
38208;SDS011;24016;52.102;11.584;2023-04-09T07:58:26;45.85;;;34.22;;
38208;SDS011;24016;52.102;11.584;2023-04-09T08:00:52;41.35;;;33.00;;
38208;SDS011;24016;52.102;11.584;2023-04-09T08:03:17;42.35;;;32.60;;
38208;SDS011;24016;52.102;11.584;2023-04-09T08:05:43;45.42;;;34.75;;
38208;SDS011;24016;52.102;11.584;2023-04-09T08:08:09;39.05;;;30.73;;
38208;SDS011;24016;52.102;11.584;2023-04-09T08:10:34;44.33;;;33.42;;
38208;SDS011;24016;52.102;11.584;2023-04-09T08:13:00;39.03;;;30.98;;
38208;SDS011;24016;52.102;11.584;2023-04-09T08:15:26;41.20;;;31.77;;
38208;SDS011;24016;52.102;11.584;2023-04-09T08:17:51;38.28;;;30.98;;
38208;SDS011;24016;52.102;11.584;2023-04-09T08:20:17;34.53;;;28.50;;
38208;SDS011;24016;52.102;11.584;2023-04-09T08:22:42;36.53;;;29.08;;
38208;SDS011;24016;52.102;11.584;2023-04-09T08:25:09;33.03;;;28.30;;
38208;SDS011;24016;52.102;11.584;2023-04-09T08:27:34;33.88;;;28.60;;
38208;SDS011;24016;52.102;11.584;2023-04-09T08:30:01;33.35;;;28.00;;
38208;SDS011;24016;52.102;11.584;2023-04-09T08:32:27;32.40;;;27.15;;
38208;SDS011;24016;52.102;11.584;2023-04-09T08:34:53;33.75;;;28.25;;
38208;SDS011;24016;52.102;11.584;2023-04-09T08:37:18;31.25;;;27.48;;
38208;SDS011;24016;52.102;11.584;2023-04-09T08:39:44;28.65;;;24.67;;
38208;SDS011;24016;52.102;11.584;2023-04-09T08:42:09;31.05;;;26.00;;
38208;SDS011;24016;52.102;11.584;2023-04-09T08:44:36;32.22;;;27.08;;
38208;SDS011;24016;52.102;11.584;2023-04-09T08:47:02;29.75;;;26.45;;
38208;SDS011;24016;52.102;11.584;2023-04-09T08:49:39;27.38;;;24.42;;
38208;SDS011;24016;52.102;11.584;2023-04-09T08:52:05;32.17;;;26.60;;
38208;SDS011;24016;52.102;11.584;2023-04-09T08:54:31;28.75;;;25.27;;
38208;SDS011;24016;52.102;11.584;2023-04-09T08:56:56;28.85;;;25.30;;
38208;SDS011;24016;52.102;11.584;2023-04-09T08:59:22;28.80;;;25.08;;
38208;SDS011;24016;52.102;11.584;2023-04-09T09:01:48;29.92;;;26.15;;
38208;SDS011;24016;52.102;11.584;2023-04-09T09:04:42;30.88;;;26.40;;
38208;SDS011;24016;52.102;11.584;2023-04-09T09:07:19;25.48;;;22.73;;
38208;SDS011;24016;52.102;11.584;2023-04-09T09:09:51;24.85;;;20.92;;
38208;SDS011;24016;52.102;11.584;2023-04-09T09:12:30;22.45;;;19.65;;
38208;SDS011;24016;52.102;11.584;2023-04-09T09:14:57;23.85;;;20.88;;
38208;SDS011;24016;52.102;11.584;2023-04-09T09:17:22;22.90;;;20.27;;
38208;SDS011;24016;52.102;11.584;2023-04-09T09:19:48;25.20;;;21.27;;
38208;SDS011;24016;52.102;11.584;2023-04-09T09:22:13;21.92;;;19.45;;
38208;SDS011;24016;52.102;11.584;2023-04-09T09:24:45;24.55;;;21.70;;
38208;SDS011;24016;52.102;11.584;2023-04-09T09:27:18;24.25;;;21.52;;
38208;SDS011;24016;52.102;11.584;2023-04-09T09:30:00;24.73;;;22.08;;
38208;SDS011;24016;52.102;11.584;2023-04-09T09:32:26;24.83;;;20.35;;
38208;SDS011;24016;52.102;11.584;2023-04-09T09:35:04;22.30;;;19.30;;
38208;SDS011;24016;52.102;11.584;2023-04-09T09:37:31;21.65;;;19.33;;
38208;SDS011;24016;52.102;11.584;2023-04-09T09:39:57;25.13;;;21.60;;
38208;SDS011;24016;52.102;11.584;2023-04-09T09:42:24;22.35;;;19.83;;
38208;SDS011;24016;52.102;11.584;2023-04-09T09:44:50;24.50;;;21.38;;
38208;SDS011;24016;52.102;11.584;2023-04-09T09:47:17;24.25;;;20.95;;
38208;SDS011;24016;52.102;11.584;2023-04-09T09:49:47;23.95;;;21.38;;
38208;SDS011;24016;52.102;11.584;2023-04-09T09:52:13;24.33;;;21.83;;
38208;SDS011;24016;52.102;11.584;2023-04-09T09:54:42;25.40;;;21.90;;
38208;SDS011;24016;52.102;11.584;2023-04-09T09:57:11;25.33;;;22.50;;
38208;SDS011;24016;52.102;11.584;2023-04-09T09:59:40;23.80;;;21.17;;
38208;SDS011;24016;52.102;11.584;2023-04-09T10:02:15;24.30;;;21.08;;
38208;SDS011;24016;52.102;11.584;2023-04-09T10:04:43;23.65;;;21.15;;
38208;SDS011;24016;52.102;11.584;2023-04-09T10:07:09;24.35;;;21.73;;
38208;SDS011;24016;52.102;11.584;2023-04-09T10:09:36;28.67;;;23.02;;
38208;SDS011;24016;52.102;11.584;2023-04-09T10:12:05;25.25;;;22.38;;
38208;SDS011;24016;52.102;11.584;2023-04-09T10:14:33;24.20;;;21.10;;
38208;SDS011;24016;52.102;11.584;2023-04-09T10:16:59;25.88;;;22.40;;
38208;SDS011;24016;52.102;11.584;2023-04-09T10:19:27;21.63;;;19.33;;
38208;SDS011;24016;52.102;11.584;2023-04-09T10:21:58;23.88;;;21.38;;
38208;SDS011;24016;52.102;11.584;2023-04-09T10:24:31;23.48;;;21.00;;
38208;SDS011;24016;52.102;11.584;2023-04-09T10:27:08;24.08;;;20.15;;
38208;SDS011;24016;52.102;11.584;2023-04-09T10:29:46;22.25;;;19.95;;
38208;SDS011;24016;52.102;11.584;2023-04-09T10:32:17;21.80;;;19.27;;
38208;SDS011;24016;52.102;11.584;2023-04-09T10:34:47;21.20;;;18.75;;
38208;SDS011;24016;52.102;11.584;2023-04-09T10:37:21;20.88;;;18.60;;
38208;SDS011;24016;52.102;11.584;2023-04-09T10:39:49;21.85;;;19.48;;
38208;SDS011;24016;52.102;11.584;2023-04-09T10:42:21;22.35;;;19.63;;
38208;SDS011;24016;52.102;11.584;2023-04-09T10:45:03;22.10;;;19.70;;
38208;SDS011;24016;52.102;11.584;2023-04-09T10:47:35;22.58;;;19.90;;
38208;SDS011;24016;52.102;11.584;2023-04-09T10:50:21;22.80;;;20.40;;
38208;SDS011;24016;52.102;11.584;2023-04-09T10:52:52;23.58;;;21.10;;
38208;SDS011;24016;52.102;11.584;2023-04-09T10:57:58;24.23;;;21.70;;
38208;SDS011;24016;52.102;11.584;2023-04-09T11:00:23;24.35;;;21.75;;
38208;SDS011;24016;52.102;11.584;2023-04-09T11:02:57;23.58;;;21.10;;
38208;SDS011;24016;52.102;11.584;2023-04-09T11:08:26;23.80;;;21.13;;
38208;SDS011;24016;52.102;11.584;2023-04-09T11:10:53;24.58;;;21.77;;
38208;SDS011;24016;52.102;11.584;2023-04-09T11:13:22;25.15;;;22.48;;
38208;SDS011;24016;52.102;11.584;2023-04-09T11:15:48;23.33;;;20.83;;
38208;SDS011;24016;52.102;11.584;2023-04-09T11:18:18;25.10;;;22.40;;
38208;SDS011;24016;52.102;11.584;2023-04-09T11:20:45;27.23;;;22.40;;
38208;SDS011;24016;52.102;11.584;2023-04-09T11:23:12;26.05;;;23.20;;
38208;SDS011;24016;52.102;11.584;2023-04-09T11:25:38;26.58;;;23.77;;
38208;SDS011;24016;52.102;11.584;2023-04-09T11:28:03;25.60;;;22.80;;
38208;SDS011;24016;52.102;11.584;2023-04-09T11:30:30;23.52;;;21.02;;
38208;SDS011;24016;52.102;11.584;2023-04-09T11:32:58;24.92;;;22.38;;
38208;SDS011;24016;52.102;11.584;2023-04-09T11:35:23;26.08;;;23.30;;
38208;SDS011;24016;52.102;11.584;2023-04-09T11:37:49;25.70;;;22.90;;
38208;SDS011;24016;52.102;11.584;2023-04-09T11:40:17;23.80;;;21.30;;
38208;SDS011;24016;52.102;11.584;2023-04-09T11:42:50;23.40;;;20.90;;
38208;SDS011;24016;52.102;11.584;2023-04-09T11:45:20;23.13;;;20.67;;
38208;SDS011;24016;52.102;11.584;2023-04-09T11:47:49;22.27;;;19.98;;
38208;SDS011;24016;52.102;11.584;2023-04-09T11:50:15;24.38;;;21.80;;
38208;SDS011;24016;52.102;11.584;2023-04-09T11:52:42;23.92;;;21.17;;
38208;SDS011;24016;52.102;11.584;2023-04-09T11:55:09;24.35;;;21.73;;
38208;SDS011;24016;52.102;11.584;2023-04-09T11:57:36;25.05;;;22.38;;
38208;SDS011;24016;52.102;11.584;2023-04-09T12:00:10;25.08;;;22.45;;
38208;SDS011;24016;52.102;11.584;2023-04-09T12:02:41;25.05;;;22.35;;
38208;SDS011;24016;52.102;11.584;2023-04-09T12:05:10;24.10;;;21.50;;
38208;SDS011;24016;52.102;11.584;2023-04-09T12:07:38;24.00;;;21.48;;
38208;SDS011;24016;52.102;11.584;2023-04-09T12:10:04;23.83;;;21.33;;
38208;SDS011;24016;52.102;11.584;2023-04-09T12:12:38;21.27;;;19.08;;
38208;SDS011;24016;52.102;11.584;2023-04-09T12:15:38;21.45;;;18.92;;
38208;SDS011;24016;52.102;11.584;2023-04-09T12:17:57;19.45;;;17.50;;
38208;SDS011;24016;52.102;11.584;2023-04-09T12:20:33;18.95;;;17.05;;
38208;SDS011;24016;52.102;11.584;2023-04-09T12:23:03;21.35;;;19.15;;
38208;SDS011;24016;52.102;11.584;2023-04-09T12:25:30;20.85;;;18.73;;
38208;SDS011;24016;52.102;11.584;2023-04-09T12:28:00;22.83;;;20.08;;
38208;SDS011;24016;52.102;11.584;2023-04-09T12:30:27;21.90;;;19.60;;
38208;SDS011;24016;52.102;11.584;2023-04-09T12:32:53;21.67;;;19.48;;
38208;SDS011;24016;52.102;11.584;2023-04-09T12:38:06;23.70;;;21.30;;
38208;SDS011;24016;52.102;11.584;2023-04-09T12:40:32;22.60;;;20.23;;
38208;SDS011;24016;52.102;11.584;2023-04-09T12:43:00;22.73;;;20.50;;
38208;SDS011;24016;52.102;11.584;2023-04-09T12:45:26;21.70;;;19.42;;
38208;SDS011;24016;52.102;11.584;2023-04-09T12:47:52;20.65;;;18.45;;
38208;SDS011;24016;52.102;11.584;2023-04-09T12:50:17;18.85;;;16.88;;
38208;SDS011;24016;52.102;11.584;2023-04-09T12:52:44;19.17;;;17.20;;
38208;SDS011;24016;52.102;11.584;2023-04-09T12:55:10;17.83;;;15.95;;
38208;SDS011;24016;52.102;11.584;2023-04-09T12:57:37;20.92;;;18.80;;
38208;SDS011;24016;52.102;11.584;2023-04-09T13:00:04;18.00;;;16.20;;
38208;SDS011;24016;52.102;11.584;2023-04-09T13:02:31;19.48;;;17.27;;
38208;SDS011;24016;52.102;11.584;2023-04-09T13:04:57;19.60;;;17.50;;
38208;SDS011;24016;52.102;11.584;2023-04-09T13:07:23;18.83;;;16.77;;
38208;SDS011;24016;52.102;11.584;2023-04-09T13:09:53;18.45;;;16.55;;
38208;SDS011;24016;52.102;11.584;2023-04-09T13:12:18;19.73;;;17.73;;
38208;SDS011;24016;52.102;11.584;2023-04-09T13:14:45;19.85;;;17.85;;
38208;SDS011;24016;52.102;11.584;2023-04-09T13:17:11;21.55;;;19.25;;
38208;SDS011;24016;52.102;11.584;2023-04-09T13:19:38;20.55;;;18.35;;
38208;SDS011;24016;52.102;11.584;2023-04-09T13:22:03;20.88;;;18.38;;
38208;SDS011;24016;52.102;11.584;2023-04-09T13:24:31;19.75;;;17.65;;
38208;SDS011;24016;52.102;11.584;2023-04-09T13:26:58;19.48;;;17.38;;
38208;SDS011;24016;52.102;11.584;2023-04-09T13:29:24;19.20;;;17.20;;
38208;SDS011;24016;52.102;11.584;2023-04-09T13:31:53;19.20;;;16.75;;
38208;SDS011;24016;52.102;11.584;2023-04-09T13:34:19;18.80;;;16.55;;
38208;SDS011;24016;52.102;11.584;2023-04-09T13:36:45;17.48;;;15.68;;
38208;SDS011;24016;52.102;11.584;2023-04-09T13:39:10;19.05;;;17.05;;
38208;SDS011;24016;52.102;11.584;2023-04-09T13:41:36;17.98;;;15.95;;
38208;SDS011;24016;52.102;11.584;2023-04-09T13:44:02;18.63;;;15.45;;
38208;SDS011;24016;52.102;11.584;2023-04-09T13:46:28;17.02;;;14.90;;
38208;SDS011;24016;52.102;11.584;2023-04-09T13:48:53;18.23;;;15.95;;
38208;SDS011;24016;52.102;11.584;2023-04-09T13:51:20;20.25;;;17.10;;
38208;SDS011;24016;52.102;11.584;2023-04-09T13:53:46;20.30;;;17.25;;
38208;SDS011;24016;52.102;11.584;2023-04-09T13:56:12;18.33;;;16.23;;
38208;SDS011;24016;52.102;11.584;2023-04-09T13:58:38;18.15;;;14.43;;
38208;SDS011;24016;52.102;11.584;2023-04-09T14:01:04;17.90;;;15.75;;
38208;SDS011;24016;52.102;11.584;2023-04-09T14:03:30;17.50;;;15.10;;
38208;SDS011;24016;52.102;11.584;2023-04-09T14:05:55;16.65;;;14.25;;
38208;SDS011;24016;52.102;11.584;2023-04-09T14:08:21;14.52;;;12.30;;
38208;SDS011;24016;52.102;11.584;2023-04-09T14:10:47;14.75;;;12.57;;
38208;SDS011;24016;52.102;11.584;2023-04-09T14:13:12;15.50;;;13.80;;
38208;SDS011;24016;52.102;11.584;2023-04-09T14:15:38;15.20;;;12.95;;
38208;SDS011;24016;52.102;11.584;2023-04-09T14:18:03;14.23;;;12.43;;
38208;SDS011;24016;52.102;11.584;2023-04-09T14:20:29;16.05;;;13.38;;
38208;SDS011;24016;52.102;11.584;2023-04-09T14:22:54;18.08;;;14.60;;
38208;SDS011;24016;52.102;11.584;2023-04-09T14:25:20;17.13;;;14.90;;
38208;SDS011;24016;52.102;11.584;2023-04-09T14:27:46;18.70;;;14.90;;
38208;SDS011;24016;52.102;11.584;2023-04-09T14:30:11;17.67;;;15.35;;